createdAt,value
2023-05-05T00:00:29.810Z,10.50
2023-05-05T00:03:15.957Z,10.50
2023-05-05T00:06:05.630Z,10.50
2023-05-05T00:08:51.519Z,10.60
2023-05-05T00:11:36.853Z,10.60
2023-05-05T00:14:22.052Z,10.60
2023-05-05T00:17:09.586Z,10.60
2023-05-05T00:19:55.808Z,10.70
2023-05-05T00:22:41.332Z,10.60
2023-05-05T00:25:27.844Z,10.60
2023-05-05T00:28:16.229Z,10.60
2023-05-05T00:31:01.775Z,10.60
2023-05-05T00:33:47.378Z,10.60
2023-05-05T00:36:32.704Z,10.60
2023-05-05T00:39:17.998Z,10.60
2023-05-05T00:42:07.974Z,10.50
2023-05-05T00:44:55.754Z,10.50
2023-05-05T00:48:01.985Z,10.50
2023-05-05T00:50:47.349Z,10.40
2023-05-05T00:53:33.215Z,10.40
2023-05-05T00:56:22.130Z,10.30
2023-05-05T00:59:09.914Z,10.30
2023-05-05T01:01:55.498Z,10.20
2023-05-05T01:04:40.969Z,10.20
2023-05-05T01:07:41.141Z,10.10
2023-05-05T01:10:46.907Z,10.00
2023-05-05T01:13:43.917Z,10.10
2023-05-05T01:16:32.704Z,10.10
2023-05-05T01:19:56.142Z,10.10
2023-05-05T01:22:53.220Z,10.00
2023-05-05T01:25:53.601Z,10.00
2023-05-05T01:29:07.435Z,10.00
2023-05-05T01:31:54.835Z,9.90
2023-05-05T01:34:56.011Z,9.90
2023-05-05T01:38:21.678Z,9.80
2023-05-05T01:41:19.633Z,9.90
2023-05-05T01:44:06.350Z,9.90
2023-05-05T01:46:56.012Z,9.90
2023-05-05T01:49:44.090Z,9.80
2023-05-05T01:52:30.452Z,9.80
2023-05-05T01:55:21.590Z,9.80
2023-05-05T01:58:08.878Z,9.70
2023-05-05T02:00:56.687Z,9.70
2023-05-05T02:03:43.867Z,9.70
2023-05-05T02:06:32.535Z,9.60
2023-05-05T02:09:18.147Z,9.50
2023-05-05T02:12:04.604Z,9.50
2023-05-05T02:14:52.233Z,9.50
2023-05-05T02:17:41.015Z,9.50
2023-05-05T02:20:28.175Z,9.40
2023-05-05T02:23:14.305Z,9.40
2023-05-05T02:26:08.066Z,9.30
2023-05-05T02:29:17.698Z,9.40
2023-05-05T02:32:09.416Z,9.30
2023-05-05T02:34:57.520Z,9.30
2023-05-05T02:37:48.228Z,9.20
2023-05-05T02:40:36.012Z,9.30
2023-05-05T02:43:23.964Z,9.20
2023-05-05T02:46:09.484Z,9.10
2023-05-05T02:48:55.355Z,9.10
2023-05-05T02:51:43.705Z,9.10
2023-05-05T02:54:31.720Z,9.10
2023-05-05T02:57:19.955Z,9.10
2023-05-05T03:00:15.181Z,9.10
2023-05-05T03:03:22.168Z,9.10
2023-05-05T03:06:21.321Z,9.00
2023-05-05T03:09:13.097Z,9.10
2023-05-05T03:12:04.561Z,9.10
2023-05-05T03:14:52.239Z,9.00
2023-05-05T03:17:43.532Z,9.00
2023-05-05T03:20:30.145Z,8.90
2023-05-05T03:23:18.364Z,9.00
2023-05-05T03:26:03.975Z,9.00
2023-05-05T03:28:49.480Z,9.00
2023-05-05T03:31:35.244Z,8.90
2023-05-05T03:34:21.215Z,9.00
2023-05-05T03:37:06.931Z,9.00
2023-05-05T03:39:52.375Z,8.90
2023-05-05T03:42:40.739Z,8.90
2023-05-05T03:45:26.479Z,8.90
2023-05-05T03:48:11.747Z,8.80
2023-05-05T03:50:57.100Z,8.90
2023-05-05T03:53:42.479Z,8.90
2023-05-05T03:56:28.010Z,8.90
2023-05-05T03:59:18.023Z,8.90
2023-05-05T04:02:03.696Z,8.90
2023-05-05T04:04:49.392Z,8.90
2023-05-05T04:07:34.845Z,8.90
2023-05-05T04:10:20.107Z,8.90
2023-05-05T04:13:08.752Z,8.90
2023-05-05T04:15:54.911Z,9.00
2023-05-05T04:18:40.370Z,8.90
2023-05-05T04:21:28.805Z,8.90
2023-05-05T04:24:14.477Z,9.00
2023-05-05T04:27:02.334Z,9.00
2023-05-05T04:29:47.964Z,9.00
2023-05-05T04:32:33.366Z,9.10
2023-05-05T04:35:19.329Z,9.10
2023-05-05T04:38:04.885Z,9.10
2023-05-05T04:40:50.956Z,9.20
2023-05-05T04:43:38.861Z,9.20
2023-05-05T04:46:25.083Z,9.20
2023-05-05T04:49:10.589Z,9.30
2023-05-05T04:52:01.225Z,9.30
2023-05-05T04:54:46.340Z,9.30
2023-05-05T04:57:34.097Z,9.40
2023-05-05T05:00:19.538Z,9.40
2023-05-05T05:03:05.199Z,9.50
2023-05-05T05:05:51.429Z,9.50
2023-05-05T05:08:36.956Z,9.60
2023-05-05T05:11:22.491Z,9.60
2023-05-05T05:14:07.718Z,9.60
2023-05-05T05:16:53.291Z,9.80
2023-05-05T05:19:39.229Z,9.80
2023-05-05T05:22:24.729Z,9.90
2023-05-05T05:25:10.983Z,10.00
2023-05-05T05:28:09.503Z,10.00
2023-05-05T05:30:56.018Z,10.00
2023-05-05T05:33:41.706Z,10.10
2023-05-05T05:36:29.207Z,10.20
2023-05-05T05:39:14.477Z,10.20
2023-05-05T05:41:59.769Z,10.30
2023-05-05T05:44:45.127Z,10.40
2023-05-05T05:47:30.760Z,10.50
2023-05-05T05:50:16.577Z,10.50
2023-05-05T05:53:02.121Z,10.60
2023-05-05T05:55:49.581Z,10.70
2023-05-05T05:58:34.742Z,10.80
2023-05-05T06:01:20.219Z,10.90
2023-05-05T06:04:05.640Z,11.10
2023-05-05T06:06:51.656Z,11.30
2023-05-05T06:09:39.894Z,11.50
2023-05-05T06:12:25.533Z,11.60
2023-05-05T06:15:12.858Z,11.60
2023-05-05T06:17:58.417Z,11.60
2023-05-05T06:20:49.567Z,11.70
2023-05-05T06:23:34.667Z,11.70
2023-05-05T06:26:22.716Z,11.70
2023-05-05T06:29:12.227Z,11.80
2023-05-05T06:31:58.123Z,11.80
2023-05-05T06:34:44.668Z,11.80
2023-05-05T06:37:32.291Z,11.90
2023-05-05T06:40:17.790Z,11.90
2023-05-05T06:43:03.236Z,11.90
2023-05-05T06:45:48.616Z,12.00
2023-05-05T06:48:33.980Z,12.00
2023-05-05T06:51:19.766Z,12.00
2023-05-05T06:54:05.223Z,12.10
2023-05-05T06:56:50.556Z,12.30
2023-05-05T06:59:36.467Z,12.50
2023-05-05T07:02:22.511Z,12.70
2023-05-05T07:05:11.298Z,12.80
2023-05-05T07:07:57.508Z,12.90
2023-05-05T07:10:42.902Z,13.00
2023-05-05T07:13:33.155Z,13.00
2023-05-05T07:16:19.213Z,13.00
2023-05-05T07:19:07.628Z,13.00
2023-05-05T07:21:52.908Z,13.00
2023-05-05T07:24:38.645Z,13.00
2023-05-05T07:27:24.272Z,12.90
2023-05-05T07:30:14.059Z,12.80
2023-05-05T07:33:04.642Z,12.80
2023-05-05T07:35:50.704Z,12.80
2023-05-05T07:38:36.129Z,12.70
2023-05-05T07:41:21.594Z,12.70
2023-05-05T07:44:06.982Z,12.70
2023-05-05T07:46:52.328Z,12.70
2023-05-05T07:49:37.681Z,12.70
2023-05-05T07:52:37.356Z,12.70
2023-05-05T07:55:31.584Z,12.80
2023-05-05T07:58:17.537Z,12.80
2023-05-05T08:01:03.349Z,12.90
2023-05-05T08:03:49.026Z,12.90
2023-05-05T08:06:34.757Z,13.00
2023-05-05T08:09:20.025Z,13.10
2023-05-05T08:12:06.030Z,13.20
2023-05-05T08:14:51.569Z,13.20
2023-05-05T08:17:48.574Z,13.40
2023-05-05T08:20:34.052Z,13.50
2023-05-05T08:23:19.636Z,13.60
2023-05-05T08:26:06.991Z,13.70
2023-05-05T08:28:55.374Z,13.70
2023-05-05T08:31:40.921Z,13.80
2023-05-05T08:34:26.828Z,13.90
2023-05-05T08:37:14.522Z,14.00
2023-05-05T08:40:00.371Z,14.20
2023-05-05T08:42:46.505Z,14.20
2023-05-05T08:45:32.735Z,14.30
2023-05-05T08:48:25.446Z,14.50
2023-05-05T08:51:16.622Z,14.60
2023-05-05T08:54:06.909Z,14.80
2023-05-05T08:56:53.750Z,15.00
2023-05-05T08:59:39.832Z,15.20
2023-05-05T09:02:29.837Z,15.30
2023-05-05T09:05:16.662Z,15.50
2023-05-05T09:08:02.973Z,15.60
2023-05-05T09:10:49.101Z,15.70
2023-05-05T09:13:35.130Z,15.80
2023-05-05T09:16:20.418Z,15.90
2023-05-05T09:19:05.975Z,16.10
2023-05-05T09:21:51.944Z,16.20
2023-05-05T09:24:37.537Z,16.20
2023-05-05T09:27:25.549Z,16.30
2023-05-05T09:30:13.263Z,16.30
2023-05-05T09:32:59.256Z,16.40
2023-05-05T09:35:49.005Z,16.40
2023-05-05T09:38:36.451Z,16.40
2023-05-05T09:41:39.714Z,16.60
2023-05-05T09:44:37.165Z,16.80
2023-05-05T09:47:34.773Z,17.00
2023-05-05T09:50:21.013Z,17.10
2023-05-05T09:53:07.256Z,17.60
2023-05-05T09:55:54.474Z,18.10
2023-05-05T09:58:40.056Z,18.20
2023-05-05T10:01:26.103Z,18.40
2023-05-05T10:04:31.568Z,18.40
2023-05-05T10:07:26.825Z,18.60
2023-05-05T10:10:16.566Z,18.90
2023-05-05T10:13:02.771Z,19.20
2023-05-05T10:15:53.471Z,19.60
2023-05-05T10:18:46.311Z,20.10
2023-05-05T10:21:42.026Z,20.40
2023-05-05T10:24:40.790Z,20.40
2023-05-05T10:27:29.030Z,20.00
2023-05-05T10:30:24.163Z,19.60
2023-05-05T10:36:09.916Z,19.20
2023-05-05T10:38:59.495Z,19.00
2023-05-05T10:41:47.241Z,18.90
2023-05-05T10:44:33.632Z,18.90
2023-05-05T10:47:27.792Z,19.00
2023-05-05T10:50:25.868Z,18.90
2023-05-05T10:53:24.755Z,19.00
2023-05-05T10:56:31.126Z,18.90
2023-05-05T10:59:39.280Z,19.00
2023-05-05T11:02:27.295Z,19.00
2023-05-05T11:05:21.983Z,19.10
2023-05-05T11:08:26.502Z,19.30
2023-05-05T11:11:12.689Z,19.60
2023-05-05T11:14:23.730Z,19.60
2023-05-05T11:17:50.520Z,19.80
2023-05-05T11:20:36.803Z,19.90
2023-05-05T11:23:22.621Z,20.50
2023-05-05T11:26:08.840Z,20.90
2023-05-05T11:28:59.319Z,21.20
2023-05-05T11:31:47.836Z,21.40
2023-05-05T11:34:33.542Z,21.70
2023-05-05T11:37:23.746Z,22.10
2023-05-05T11:40:27.913Z,22.00
2023-05-05T11:43:13.191Z,22.00
2023-05-05T11:46:11.985Z,22.20
2023-05-05T11:48:57.603Z,22.30
2023-05-05T11:51:43.731Z,22.40
2023-05-05T11:54:29.916Z,22.30
2023-05-05T11:57:21.105Z,22.40
2023-05-05T12:00:09.088Z,22.60
2023-05-05T12:02:58.156Z,22.40
2023-05-05T12:05:44.597Z,22.70
2023-05-05T12:08:38.759Z,22.50
2023-05-05T12:11:24.003Z,23.20
2023-05-05T12:14:11.036Z,23.30
2023-05-05T12:17:01.464Z,23.20
2023-05-05T12:19:52.716Z,23.40
2023-05-05T12:22:41.376Z,23.50
2023-05-05T12:25:35.820Z,23.10
2023-05-05T12:28:21.285Z,23.90
2023-05-05T12:31:06.984Z,24.80
2023-05-05T12:33:52.647Z,28.10
2023-05-05T12:36:39.301Z,31.80
2023-05-05T12:39:36.379Z,34.00
2023-05-05T12:42:22.929Z,34.40
2023-05-05T12:45:17.569Z,37.70
2023-05-05T12:48:21.438Z,40.30
2023-05-05T12:51:11.771Z,40.90
2023-05-05T12:54:05.414Z,41.00
2023-05-05T12:56:51.337Z,41.40
2023-05-05T12:59:39.386Z,41.20
2023-05-05T13:02:34.314Z,41.70
2023-05-05T13:05:34.090Z,45.30
2023-05-05T13:08:19.624Z,45.40
2023-05-05T13:11:05.003Z,46.50
2023-05-05T13:13:51.160Z,48.10
2023-05-05T13:16:36.753Z,49.10
2023-05-05T13:19:25.630Z,49.40
2023-05-05T13:22:13.559Z,47.50
2023-05-05T13:25:02.153Z,46.80
2023-05-05T13:27:47.435Z,48.60
2023-05-05T13:30:32.941Z,46.60
2023-05-05T13:33:18.593Z,48.10
2023-05-05T13:36:04.540Z,48.50
2023-05-05T13:38:54.691Z,50.30
2023-05-05T13:41:40.218Z,50.70
2023-05-05T13:44:25.543Z,51.20
2023-05-05T13:47:10.787Z,51.70
2023-05-05T13:49:56.869Z,50.20
2023-05-05T13:52:42.735Z,48.80
2023-05-05T13:55:29.004Z,49.60
2023-05-05T13:58:17.603Z,50.40
2023-05-05T14:01:03.437Z,49.80
2023-05-05T14:03:49.375Z,48.70
2023-05-05T14:06:36.222Z,46.90
2023-05-05T14:09:24.223Z,47.80
2023-05-05T14:12:09.865Z,47.00
2023-05-05T14:14:55.542Z,46.20
2023-05-05T14:17:40.950Z,46.30
2023-05-05T14:20:29.775Z,44.60
2023-05-05T14:23:15.349Z,43.90
2023-05-05T14:26:01.280Z,42.00
2023-05-05T14:28:48.947Z,40.90
2023-05-05T14:31:39.802Z,40.10
2023-05-05T14:34:25.138Z,38.10
2023-05-05T14:37:10.547Z,35.90
2023-05-05T14:39:56.212Z,34.90
2023-05-05T14:42:41.811Z,35.30
2023-05-05T14:45:29.532Z,34.70
2023-05-05T14:48:17.060Z,34.10
2023-05-05T14:51:02.684Z,33.50
2023-05-05T14:53:48.486Z,32.00
2023-05-05T14:56:33.992Z,31.40
2023-05-05T14:59:19.369Z,30.00
2023-05-05T15:02:04.992Z,28.90
2023-05-05T15:04:52.695Z,27.30
2023-05-05T15:07:38.622Z,26.80
2023-05-05T15:10:24.380Z,26.00
2023-05-05T15:13:11.874Z,25.60
2023-05-05T15:15:57.737Z,25.60
2023-05-05T15:18:46.039Z,26.30
2023-05-05T15:21:31.909Z,26.10
2023-05-05T15:24:19.794Z,25.80
2023-05-05T15:27:08.254Z,25.50
2023-05-05T15:29:54.429Z,25.00
2023-05-05T15:32:42.519Z,25.40
2023-05-05T15:35:27.786Z,25.40
2023-05-05T15:38:15.335Z,24.90
2023-05-05T15:41:05.909Z,24.50
2023-05-05T15:43:52.179Z,24.30
2023-05-05T15:46:37.836Z,24.00
2023-05-05T15:49:23.601Z,24.70
2023-05-05T15:52:14.009Z,24.60
2023-05-05T15:55:02.046Z,24.70
2023-05-05T15:57:49.908Z,24.30
2023-05-05T16:00:38.521Z,23.90
2023-05-05T16:03:24.260Z,23.30
2023-05-05T16:06:11.960Z,23.00
2023-05-05T16:08:58.641Z,22.60
2023-05-05T16:11:44.870Z,22.30
2023-05-05T16:14:32.761Z,22.20
2023-05-05T16:17:18.314Z,22.10
2023-05-05T16:20:05.063Z,21.90
2023-05-05T16:22:50.477Z,21.60
2023-05-05T16:25:36.151Z,21.20
2023-05-05T16:28:22.008Z,21.10
2023-05-05T16:31:10.506Z,20.90
2023-05-05T16:33:56.305Z,20.60
2023-05-05T16:36:44.154Z,20.40
2023-05-05T16:39:29.856Z,20.30
2023-05-05T16:42:15.489Z,20.10
2023-05-05T16:45:00.987Z,20.00
2023-05-05T16:47:46.474Z,19.80
2023-05-05T16:50:32.085Z,19.70
2023-05-05T16:53:17.319Z,19.50
2023-05-05T16:56:05.530Z,19.20
2023-05-05T16:58:51.078Z,19.00
2023-05-05T17:01:36.851Z,18.90
2023-05-05T17:04:23.277Z,18.70
2023-05-05T17:07:08.812Z,18.60
2023-05-05T17:09:53.968Z,18.60
2023-05-05T17:12:39.564Z,18.50
2023-05-05T17:15:28.024Z,18.40
2023-05-05T17:18:16.297Z,18.30
2023-05-05T17:21:02.420Z,18.10
2023-05-05T17:23:48.057Z,18.10
2023-05-05T17:26:36.452Z,18.00
2023-05-05T17:29:23.428Z,17.90
2023-05-05T17:32:10.526Z,17.80
2023-05-05T17:34:56.388Z,17.70
2023-05-05T17:37:42.229Z,17.60
2023-05-05T17:40:29.724Z,17.50
2023-05-05T17:43:17.324Z,17.50
2023-05-05T17:46:05.236Z,17.40
2023-05-05T17:48:51.216Z,17.30
2023-05-05T17:51:38.862Z,17.20
2023-05-05T17:54:24.633Z,17.20
2023-05-05T17:57:10.275Z,17.10
2023-05-05T17:59:55.904Z,17.10
2023-05-05T18:02:41.954Z,16.90
2023-05-05T18:05:28.596Z,16.90
2023-05-05T18:08:14.242Z,16.90
2023-05-05T18:11:00.447Z,16.80
2023-05-05T18:13:46.156Z,16.80
2023-05-05T18:16:36.075Z,16.70
2023-05-05T18:19:23.760Z,16.70
2023-05-05T18:22:08.940Z,16.60
2023-05-05T18:24:59.068Z,16.50
2023-05-05T18:27:49.692Z,16.40
2023-05-05T18:30:36.167Z,16.40
2023-05-05T18:33:21.394Z,16.30
2023-05-05T18:36:07.807Z,16.30
2023-05-05T18:38:56.817Z,16.20
2023-05-05T18:41:42.374Z,16.20
2023-05-05T18:44:27.623Z,16.10
2023-05-05T18:47:13.033Z,16.10
2023-05-05T18:50:00.225Z,16.00
2023-05-05T18:52:45.688Z,16.00
2023-05-05T18:55:31.510Z,16.00
2023-05-05T18:58:17.675Z,15.90
2023-05-05T19:01:03.280Z,15.80
2023-05-05T19:03:49.446Z,15.80
2023-05-05T19:06:38.551Z,15.70
2023-05-05T19:09:24.206Z,15.70
2023-05-05T19:12:09.755Z,15.60
2023-05-05T19:14:55.821Z,15.60
2023-05-05T19:17:44.152Z,15.50
2023-05-05T19:20:32.469Z,15.50
2023-05-05T19:23:17.732Z,15.40
2023-05-05T19:26:06.523Z,15.40
2023-05-05T19:28:52.374Z,15.40
2023-05-05T19:31:38.146Z,15.30
2023-05-05T19:34:26.133Z,15.30
2023-05-05T19:37:12.478Z,15.30
2023-05-05T19:39:58.035Z,15.20
2023-05-05T19:42:46.677Z,15.20
2023-05-05T19:45:37.102Z,15.10
2023-05-05T19:48:24.728Z,15.10
2023-05-05T19:51:10.519Z,15.00
2023-05-05T19:53:56.127Z,15.00
2023-05-05T19:56:41.393Z,14.90
2023-05-05T19:59:29.999Z,14.90
2023-05-05T20:02:20.294Z,14.90
2023-05-05T20:05:06.807Z,14.80
2023-05-05T20:07:52.988Z,14.80
2023-05-05T20:10:38.719Z,14.70
2023-05-05T20:13:24.417Z,14.70
2023-05-05T20:16:10.316Z,14.70
2023-05-05T20:18:56.138Z,14.60
2023-05-05T20:21:41.443Z,14.60
2023-05-05T20:24:29.897Z,14.60
2023-05-05T20:27:17.792Z,14.50
2023-05-05T20:30:04.131Z,14.50
2023-05-05T20:32:50.863Z,14.40
2023-05-05T20:35:40.991Z,14.40
2023-05-05T20:38:26.467Z,14.30
2023-05-05T20:41:14.980Z,14.30
2023-05-05T20:44:00.734Z,14.30
2023-05-05T20:46:46.298Z,14.20
2023-05-05T20:49:34.679Z,14.20
2023-05-05T20:52:20.263Z,14.10
2023-05-05T20:55:08.167Z,14.10
2023-05-05T20:57:54.225Z,14.10
2023-05-05T21:00:40.097Z,14.10
2023-05-05T21:03:25.945Z,14.00
2023-05-05T21:06:12.213Z,14.00
2023-05-05T21:09:01.088Z,14.00
2023-05-05T21:11:47.201Z,14.00
2023-05-05T21:14:33.362Z,14.00
2023-05-05T21:17:18.716Z,14.00
2023-05-05T21:20:05.812Z,13.90
2023-05-05T21:22:50.912Z,13.90
2023-05-05T21:25:37.532Z,13.90
2023-05-05T21:28:23.125Z,13.90
2023-05-05T21:33:56.777Z,13.80
2023-05-05T21:36:42.168Z,13.80
2023-05-05T21:39:28.324Z,13.80
2023-05-05T21:42:16.553Z,13.80
2023-05-05T21:45:01.961Z,13.80
2023-05-05T21:47:47.285Z,13.80
2023-05-05T21:50:32.916Z,13.80
2023-05-05T21:53:18.459Z,13.70
2023-05-05T21:56:06.073Z,13.70
2023-05-05T21:58:51.406Z,13.70
2023-05-05T22:01:36.956Z,13.70
2023-05-05T22:04:22.537Z,13.70
2023-05-05T22:07:07.803Z,13.70
2023-05-05T22:09:53.149Z,13.60
2023-05-05T22:12:38.820Z,13.60
2023-05-05T22:15:27.624Z,13.60
2023-05-05T22:18:15.910Z,13.50
2023-05-05T22:21:04.186Z,13.50
2023-05-05T22:23:49.912Z,13.50
2023-05-05T22:26:35.524Z,13.50
2023-05-05T22:29:21.333Z,13.40
2023-05-05T22:32:09.452Z,13.40
2023-05-05T22:34:54.895Z,13.30
2023-05-05T22:37:40.397Z,13.20
2023-05-05T22:40:25.821Z,13.10
2023-05-05T22:43:11.659Z,13.10
2023-05-05T22:45:59.546Z,13.00
2023-05-05T22:48:47.044Z,13.00
2023-05-05T22:51:32.459Z,13.00
2023-05-05T22:54:19.713Z,12.90
2023-05-05T22:57:05.425Z,12.90
2023-05-05T22:59:53.367Z,12.90
2023-05-05T23:02:39.762Z,12.90
2023-05-05T23:05:27.461Z,12.70
2023-05-05T23:08:12.783Z,12.60
2023-05-05T23:10:58.868Z,12.50
2023-05-05T23:13:44.590Z,12.40
2023-05-05T23:16:30.622Z,12.40
2023-05-05T23:19:16.480Z,12.40
2023-05-05T23:22:02.327Z,12.30
2023-05-05T23:24:47.970Z,12.20
2023-05-05T23:27:33.147Z,12.10
2023-05-05T23:30:21.308Z,12.10
2023-05-05T23:33:08.902Z,12.00
2023-05-05T23:35:54.598Z,11.90
2023-05-05T23:38:42.252Z,11.90
2023-05-05T23:41:30.080Z,11.80
2023-05-05T23:44:15.393Z,11.70
2023-05-05T23:47:01.157Z,11.60
2023-05-05T23:49:46.501Z,11.50
2023-05-05T23:52:31.768Z,11.50
2023-05-05T23:55:17.105Z,11.40
2023-05-05T23:58:03.005Z,11.40
